CheckWX is a tool to help pilots better visualize weather data.  It is not intended as a substitute for an official pre-flight weather briefing.

18:03:17 UTC

SLTR TAF
Teniente Av. Jorge Henrich Arauz Airport
Trinidad, Bolivia
TAF SLTR 121650Z 1218/1318 35006KT 9999 SCT017 FEW020CB SCT070 TX34/ 1220Z TN22/1310Z TEMPO 1219/1222 8000 SHRA BECMG 1223/1301 00000KT SCT012 BKN070 BECMG 1312/1314 34006KT

Nov-12@
18:00 UTC

Nov-12 @ 18:00 UTC

Nov-12@
23:00 UTC

Nov-12 @ 23:00 UTC

TAF SLTR 121650Z 1218/1318 35006KT 9999 SCT017 FEW020CB SCT070 TX34/ 1220Z TN22/1310Z
Wind
  • 350° at 6 KTS
Cloud Levels
  • Scattered at 1,700' AGL
  • Few at 2,000' AGL
  • Scattered at 7,000' AGL

Nov-12@
19:00 UTC

Nov-12 @ 19:00 UTC

Nov-12@
22:00 UTC

Nov-12 @ 22:00 UTC

TEMPO 1219/1222 8000 SHRA

Temporary

Temporary Changes expected for less than half the time period

Conditions
Rain

Nov-12@
23:00 UTC

Nov-12 @ 23:00 UTC

Nov-13@
12:00 UTC

Nov-13 @ 12:00 UTC

BECMG 1223/1301 00000KT SCT012 BKN070

Becoming

Becoming Conditions expected by Wed, Nov 13, 2019 @ 01:00 UTC

Cloud Levels
  • Scattered at 1,200' AGL
  • Broken at 7,000' AGL

Nov-13@
12:00 UTC

Nov-13 @ 12:00 UTC

Nov-13@
18:00 UTC

Nov-13 @ 18:00 UTC

BECMG 1312/1314 34006KT

Becoming

Becoming Conditions expected by Wed, Nov 13, 2019 @ 14:00 UTC

Wind
  • 340° at 6 KTS
Cloud Levels
  • Scattered at 1,200' AGL
  • Broken at 7,000' AGL